This is the latest recevied weather packets stored in our database for station/object F4FEB-13. If no packets are shown the sender has not sent any weather packets the latest 10 day(s).
| Time | Temp. | Humidity | Pressure | Rain* | Wind** | Luminosity | Snow |
|---|---|---|---|---|---|---|---|
| 1777779566 | 11.67° C | 71% | 1015.8 hPa | 0 mm | - | - | - |
| 1777779266 | 11.11° C | 71% | 1015.8 hPa | 0 mm | - | - | - |
| 1777778966 | 11.11° C | 71% | 1015.8 hPa | 0 mm | - | - | - |
| 1777778666 | 11.11° C | 71% | 1015.7 hPa | 0 mm | - | - | - |
| 1777778366 | 11.11° C | 72% | 1015.8 hPa | 0 mm | - | - | - |
| 1777778066 | 11.11° C | 72% | 1015.9 hPa | 0 mm | - | - | - |
| 1777777766 | 11.11° C | 73% | 1015.9 hPa | 0 mm | - | - | - |
| 1777777466 | 11.11° C | 72% | 1016 hPa | 0 mm | - | - | - |
| 1777777166 | 11.11° C | 72% | 1016 hPa | 0 mm | - | - | - |
| 1777776866 | 11.67° C | 69% | 1016 hPa | 0 mm | - | - | - |
| 1777776566 | 12.22° C | 67% | 1015.8 hPa | 0 mm | - | - | - |
| 1777776266 | 12.78° C | 65% | 1015.9 hPa | 0 mm | - | - | - |
| 1777775966 | 12.78° C | 64% | 1015.8 hPa | 0 mm | - | - | - |
| 1777775666 | 12.78° C | 63% | 1015.8 hPa | 0 mm | - | - | - |
| 1777775366 | 12.22° C | 67% | 1015.8 hPa | 0 mm | - | - | - |
| 1777775066 | 12.22° C | 67% | 1015.8 hPa | 0 mm | - | - | - |
| 1777774766 | 12.22° C | 67% | 1015.8 hPa | 0 mm | - | - | - |
| 1777774466 | 12.22° C | 67% | 1015.8 hPa | 0 mm | - | - | - |
| 1777774166 | 11.67° C | 68% | 1015.8 hPa | 0 mm | - | - | - |
| 1777773866 | 11.67° C | 69% | 1015.9 hPa | 0 mm | - | - | - |
| 1777773566 | 11.67° C | 70% | 1015.9 hPa | 0 mm | - | - | - |
| 1777773266 | 11.67° C | 70% | 1016 hPa | 0 mm | - | - | - |
| 1777772966 | 11.67° C | 69% | 1016.1 hPa | 0 mm | - | - | - |
| 1777772666 | 12.22° C | 66% | 1016 hPa | 0 mm | - | - | - |
| 1777772366 | 12.78° C | 64% | 1016 hPa | 0 mm | - | - | - |
* Rain latest hour (hover to see other rain measurements)
** Current wind speed in m/s (hover to see current wind gust speed)